createdAt,value
2024-04-19T00:00:54.797Z,30.64
2024-04-19T00:03:42.743Z,30.91
2024-04-19T00:06:10.998Z,30.82
2024-04-19T00:08:38.881Z,30.82
2024-04-19T00:11:07.093Z,30.77
2024-04-19T00:13:35.443Z,30.58
2024-04-19T00:16:03.192Z,30.68
2024-04-19T00:18:31.000Z,30.61
2024-04-19T00:20:59.282Z,30.62
2024-04-19T00:23:26.961Z,30.66
2024-04-19T00:25:55.325Z,30.63
2024-04-19T00:28:41.265Z,30.47
2024-04-19T00:31:09.862Z,30.58
2024-04-19T00:33:38.669Z,30.55
2024-04-19T00:36:07.946Z,30.49
2024-04-19T00:38:35.775Z,30.43
2024-04-19T00:41:03.804Z,30.33
2024-04-19T00:43:33.703Z,30.42
2024-04-19T00:46:02.610Z,30.46
2024-04-19T00:48:30.273Z,30.37
2024-04-19T00:50:59.976Z,30.20
2024-04-19T00:53:30.691Z,30.29
2024-04-19T00:56:01.875Z,30.25
2024-04-19T00:58:30.656Z,30.29
2024-04-19T01:01:04.693Z,30.20
2024-04-19T01:03:33.365Z,30.25
2024-04-19T01:06:01.346Z,30.29
2024-04-19T01:08:30.109Z,30.29
2024-04-19T01:10:59.193Z,30.28
2024-04-19T01:13:26.958Z,30.37
2024-04-19T01:15:55.306Z,30.23
2024-04-19T01:18:23.178Z,30.23
2024-04-19T01:20:51.093Z,30.30
2024-04-19T01:23:20.124Z,30.30
2024-04-19T01:25:49.158Z,30.14
2024-04-19T01:28:17.257Z,30.29
2024-04-19T01:30:46.262Z,30.35
2024-04-19T01:33:14.933Z,30.35
2024-04-19T01:35:42.994Z,30.20
2024-04-19T01:38:10.771Z,30.29
2024-04-19T01:40:38.749Z,30.16
2024-04-19T01:43:06.411Z,30.31
2024-04-19T01:45:34.212Z,30.22
2024-04-19T01:48:02.992Z,30.22
2024-04-19T01:50:30.947Z,30.32
2024-04-19T01:52:58.601Z,30.30
2024-04-19T01:55:26.263Z,30.39
2024-04-19T01:57:53.952Z,30.37
2024-04-19T02:00:21.801Z,30.33
2024-04-19T02:02:49.457Z,30.33
2024-04-19T02:05:17.203Z,30.17
2024-04-19T02:07:44.931Z,30.40
2024-04-19T02:10:12.753Z,30.33
2024-04-19T02:12:40.648Z,30.31
2024-04-19T02:15:08.602Z,30.27
2024-04-19T02:17:36.492Z,30.20
2024-04-19T02:20:04.957Z,30.25
2024-04-19T02:22:32.611Z,30.33
2024-04-19T02:25:00.340Z,30.30
2024-04-19T02:27:46.951Z,30.19
2024-04-19T02:30:34.049Z,30.26
2024-04-19T02:33:01.810Z,30.23
2024-04-19T02:35:29.844Z,30.33
2024-04-19T02:37:57.612Z,30.31
2024-04-19T02:40:25.374Z,30.35
2024-04-19T02:42:53.122Z,30.33
2024-04-19T02:45:21.512Z,30.35
2024-04-19T02:47:49.226Z,30.37
2024-04-19T02:50:17.174Z,30.41
2024-04-19T02:52:45.026Z,30.35
2024-04-19T02:55:12.993Z,30.38
2024-04-19T02:57:40.831Z,30.38
2024-04-19T03:00:09.553Z,30.45
2024-04-19T03:02:45.328Z,30.44
2024-04-19T03:05:13.282Z,30.47
2024-04-19T03:07:41.388Z,30.41
2024-04-19T03:10:09.056Z,30.36
2024-04-19T03:12:36.690Z,30.29
2024-04-19T03:15:05.162Z,30.37
2024-04-19T03:17:32.998Z,30.39
2024-04-19T03:20:00.740Z,30.35
2024-04-19T03:22:28.570Z,30.35
2024-04-19T03:24:56.221Z,30.35
2024-04-19T03:27:24.013Z,30.32
2024-04-19T03:29:59.132Z,30.33
2024-04-19T03:32:27.302Z,30.40
2024-04-19T03:34:55.116Z,30.41
2024-04-19T03:37:22.954Z,30.44
2024-04-19T03:39:50.637Z,30.42
2024-04-19T03:42:21.838Z,30.47
2024-04-19T03:48:40.948Z,30.54
2024-04-19T03:51:08.907Z,30.59
2024-04-19T03:53:36.675Z,30.54
2024-04-19T03:56:05.151Z,30.64
2024-04-19T03:58:32.816Z,30.64
2024-04-19T04:01:06.539Z,30.69
2024-04-19T04:03:34.603Z,30.66
2024-04-19T04:06:02.983Z,30.67
2024-04-19T04:08:30.629Z,30.67
2024-04-19T04:11:01.798Z,30.64
2024-04-19T04:13:30.355Z,30.67
2024-04-19T04:15:58.132Z,30.71
2024-04-19T04:18:26.354Z,30.78
2024-04-19T04:20:54.271Z,30.64
2024-04-19T04:23:21.957Z,30.77
2024-04-19T04:25:49.724Z,30.72
2024-04-19T04:28:17.365Z,30.84
2024-04-19T04:30:45.045Z,30.79
2024-04-19T04:33:13.059Z,30.75
2024-04-19T04:35:40.972Z,30.74
2024-04-19T04:38:08.654Z,30.72
2024-04-19T04:40:37.128Z,30.80
2024-04-19T04:43:05.398Z,30.80
2024-04-19T04:45:33.347Z,30.81
2024-04-19T04:48:01.289Z,30.91
2024-04-19T04:50:29.203Z,30.93
2024-04-19T04:53:03.058Z,30.96
2024-04-19T04:55:31.400Z,30.97
2024-04-19T04:58:00.519Z,31.04
2024-04-19T05:00:30.342Z,31.04
2024-04-19T05:02:59.022Z,31.02
2024-04-19T05:05:27.170Z,31.05
2024-04-19T05:07:55.244Z,31.16
2024-04-19T05:10:23.012Z,31.09
2024-04-19T05:12:50.833Z,31.05
2024-04-19T05:15:18.928Z,31.12
2024-04-19T05:17:47.222Z,31.02
2024-04-19T05:20:15.133Z,31.12
2024-04-19T05:22:43.022Z,31.39
2024-04-19T05:25:10.753Z,32.11
2024-04-19T05:27:39.544Z,32.67
2024-04-19T05:30:07.974Z,33.21
2024-04-19T05:32:35.710Z,33.72
2024-04-19T05:35:03.676Z,34.19
2024-04-19T05:37:31.414Z,34.64
2024-04-19T05:39:59.084Z,34.68
2024-04-19T05:42:27.225Z,34.96
2024-04-19T05:44:55.415Z,35.10
2024-04-19T05:47:23.099Z,35.29
2024-04-19T05:49:50.737Z,35.42
2024-04-19T05:52:18.440Z,35.59
2024-04-19T05:54:46.413Z,35.65
2024-04-19T05:57:14.459Z,35.89
2024-04-19T05:59:42.520Z,35.84
2024-04-19T06:02:10.329Z,35.87
2024-04-19T06:04:38.160Z,35.83
2024-04-19T06:07:06.053Z,35.95
2024-04-19T06:09:39.647Z,35.88
2024-04-19T06:12:11.082Z,35.95
2024-04-19T06:14:41.893Z,36.09
2024-04-19T06:17:14.807Z,36.12
2024-04-19T06:19:44.424Z,36.05
2024-04-19T06:22:16.483Z,36.12
2024-04-19T06:24:48.704Z,36.21
2024-04-19T06:27:20.270Z,36.21
2024-04-19T06:29:53.321Z,36.22
2024-04-19T06:32:23.153Z,36.16
2024-04-19T06:34:53.291Z,36.06
2024-04-19T06:37:23.548Z,36.16
2024-04-19T06:39:59.439Z,36.08
2024-04-19T06:42:35.113Z,36.07
2024-04-19T06:45:05.321Z,36.05
2024-04-19T06:47:34.117Z,36.05
2024-04-19T06:50:02.093Z,36.05
2024-04-19T06:52:30.350Z,36.13
2024-04-19T06:54:59.068Z,36.21
2024-04-19T06:57:27.566Z,36.57
2024-04-19T07:00:05.313Z,36.86
2024-04-19T07:02:39.466Z,37.33
2024-04-19T07:05:07.537Z,37.62
2024-04-19T07:07:35.585Z,37.94
2024-04-19T07:10:04.694Z,38.30
2024-04-19T07:12:33.342Z,38.41
2024-04-19T07:15:01.313Z,38.49
2024-04-19T07:17:29.275Z,38.53
2024-04-19T07:20:00.161Z,38.42
2024-04-19T07:22:28.802Z,38.26
2024-04-19T07:24:56.473Z,38.20
2024-04-19T07:27:30.497Z,38.10
2024-04-19T07:30:04.557Z,38.14
2024-04-19T07:32:32.410Z,38.12
2024-04-19T07:35:00.022Z,38.04
2024-04-19T07:37:28.705Z,38.03
2024-04-19T07:39:57.032Z,38.03
2024-04-19T07:42:24.784Z,38.07
2024-04-19T07:44:52.516Z,37.95
2024-04-19T07:47:20.191Z,37.87
2024-04-19T07:49:48.475Z,37.72
2024-04-19T07:52:17.449Z,37.59
2024-04-19T07:54:46.701Z,37.32
2024-04-19T07:57:15.366Z,37.51
2024-04-19T07:59:43.726Z,37.36
2024-04-19T08:02:11.857Z,37.31
2024-04-19T08:04:39.922Z,37.50
2024-04-19T08:07:08.796Z,37.49
2024-04-19T08:09:39.248Z,37.20
2024-04-19T08:12:07.951Z,37.26
2024-04-19T08:14:35.751Z,37.20
2024-04-19T08:17:03.334Z,37.27
2024-04-19T08:19:31.510Z,37.19
2024-04-19T08:21:59.411Z,37.09
2024-04-19T08:24:28.606Z,37.16
2024-04-19T08:26:57.596Z,36.92
2024-04-19T08:29:35.028Z,37.06
2024-04-19T08:32:10.824Z,37.04
2024-04-19T08:34:41.762Z,36.98
2024-04-19T08:37:10.663Z,36.95
2024-04-19T08:39:39.899Z,36.82
2024-04-19T08:42:10.368Z,36.88
2024-04-19T08:44:45.349Z,36.82
2024-04-19T08:47:16.136Z,36.80
2024-04-19T08:49:45.963Z,36.82
2024-04-19T08:52:39.110Z,36.89
2024-04-19T08:55:08.623Z,36.66
2024-04-19T08:57:37.164Z,36.83
2024-04-19T09:00:13.214Z,36.53
2024-04-19T09:02:43.437Z,36.33
2024-04-19T09:05:11.764Z,36.29
2024-04-19T09:07:41.507Z,36.38
2024-04-19T09:10:14.306Z,36.37
2024-04-19T09:12:42.252Z,36.30
2024-04-19T09:15:09.985Z,36.24
2024-04-19T09:17:37.803Z,36.33
2024-04-19T09:20:07.395Z,36.41
2024-04-19T09:22:35.599Z,36.30
2024-04-19T09:25:03.710Z,35.87
2024-04-19T09:27:32.871Z,35.82
2024-04-19T09:30:02.890Z,35.66
2024-04-19T09:32:31.619Z,35.74
2024-04-19T09:34:59.696Z,35.83
2024-04-19T09:37:29.922Z,35.58
2024-04-19T09:39:58.370Z,35.56
2024-04-19T09:42:26.454Z,35.43
2024-04-19T09:44:54.247Z,35.57
2024-04-19T09:47:25.091Z,35.53
2024-04-19T09:49:58.472Z,35.52
2024-04-19T09:52:31.090Z,35.46
2024-04-19T09:55:17.677Z,35.42
2024-04-19T09:57:47.697Z,35.50
2024-04-19T10:00:19.129Z,35.56
2024-04-19T10:02:47.628Z,35.40
2024-04-19T10:05:15.596Z,35.36
2024-04-19T10:07:44.701Z,35.33
2024-04-19T10:10:12.319Z,35.38
2024-04-19T10:12:43.025Z,35.38
2024-04-19T10:15:12.558Z,35.55
2024-04-19T10:18:13.600Z,35.50
2024-04-19T10:20:44.429Z,35.62
2024-04-19T10:23:15.304Z,35.43
2024-04-19T10:25:46.487Z,35.38
2024-04-19T10:28:17.481Z,35.23
2024-04-19T10:30:46.680Z,35.16
2024-04-19T10:33:16.971Z,35.34
2024-04-19T10:35:47.236Z,35.14
2024-04-19T10:38:15.281Z,34.96
2024-04-19T10:40:43.866Z,34.99
2024-04-19T10:43:11.553Z,34.70
2024-04-19T10:45:39.536Z,34.81
2024-04-19T10:48:08.135Z,35.28
2024-04-19T10:50:35.978Z,35.29
2024-04-19T10:53:03.746Z,35.17
2024-04-19T10:55:31.518Z,35.18
2024-04-19T10:57:59.314Z,35.21
2024-04-19T11:00:28.259Z,35.21
2024-04-19T11:03:09.886Z,35.33
2024-04-19T11:05:42.945Z,35.33
2024-04-19T11:08:10.935Z,35.38
2024-04-19T11:10:38.697Z,35.37
2024-04-19T11:13:06.502Z,35.24
2024-04-19T11:15:40.282Z,35.36
2024-04-19T11:18:16.248Z,35.29
2024-04-19T11:20:47.851Z,35.24
2024-04-19T11:23:20.043Z,35.37
2024-04-19T11:25:48.010Z,35.33
2024-04-19T11:28:16.280Z,35.35
2024-04-19T11:30:43.964Z,35.38
2024-04-19T11:33:12.773Z,35.23
2024-04-19T11:35:44.591Z,35.19
2024-04-19T11:38:16.883Z,35.29
2024-04-19T11:40:45.416Z,35.41
2024-04-19T11:43:13.380Z,35.29
2024-04-19T11:45:45.649Z,35.38
2024-04-19T11:48:27.416Z,35.25
2024-04-19T11:50:56.392Z,35.32
2024-04-19T11:53:24.781Z,35.18
2024-04-19T11:55:54.346Z,35.24
2024-04-19T11:58:22.245Z,35.18
2024-04-19T12:00:50.399Z,35.16
2024-04-19T12:03:18.343Z,35.10
2024-04-19T12:05:46.704Z,35.05
2024-04-19T12:08:15.052Z,35.10
2024-04-19T12:10:43.072Z,34.97
2024-04-19T12:13:50.854Z,34.97
2024-04-19T12:16:30.717Z,35.17
2024-04-19T12:18:46.786Z,35.10
2024-04-19T12:21:15.102Z,34.92
2024-04-19T12:23:45.759Z,35.01
2024-04-19T12:26:15.350Z,34.61
2024-04-19T12:28:53.356Z,34.62
2024-04-19T12:31:26.386Z,34.61
2024-04-19T12:33:54.143Z,34.60
2024-04-19T12:36:21.763Z,34.63
2024-04-19T12:38:50.764Z,34.77
2024-04-19T12:41:19.152Z,34.57
2024-04-19T12:43:49.096Z,34.56
2024-04-19T12:46:16.882Z,34.62
2024-04-19T12:48:46.138Z,34.67
2024-04-19T12:51:15.084Z,34.75
2024-04-19T12:53:46.628Z,34.69
2024-04-19T12:56:14.397Z,34.63
2024-04-19T12:58:43.066Z,34.75
2024-04-19T13:01:11.471Z,34.72
2024-04-19T13:03:39.403Z,34.58
2024-04-19T13:06:08.461Z,34.48
2024-04-19T13:08:36.963Z,34.53
2024-04-19T13:11:05.073Z,34.50
2024-04-19T13:13:49.808Z,34.31
2024-04-19T13:16:17.646Z,34.29
2024-04-19T13:18:45.839Z,34.17
2024-04-19T13:21:13.553Z,34.15
2024-04-19T13:23:42.300Z,34.06
2024-04-19T13:26:10.555Z,34.18
2024-04-19T13:28:40.512Z,33.96
2024-04-19T13:31:08.478Z,33.94
2024-04-19T13:33:36.418Z,33.87
2024-04-19T13:36:04.715Z,33.71
2024-04-19T13:38:32.551Z,33.67
2024-04-19T13:41:00.554Z,33.64
2024-04-19T13:43:30.066Z,33.63
2024-04-19T13:45:58.721Z,33.54
2024-04-19T13:48:27.495Z,33.56
2024-04-19T13:50:55.256Z,33.53
2024-04-19T13:53:23.219Z,33.53
2024-04-19T13:55:50.987Z,33.44
2024-04-19T13:58:18.568Z,33.52
2024-04-19T14:00:46.281Z,33.39
2024-04-19T14:03:17.969Z,33.43
2024-04-19T14:05:45.731Z,33.51
2024-04-19T14:08:13.346Z,33.44
2024-04-19T14:10:43.639Z,33.49
2024-04-19T14:13:11.394Z,33.36
2024-04-19T14:15:39.967Z,33.20
2024-04-19T14:18:07.923Z,33.48
2024-04-19T14:20:36.261Z,33.37
2024-04-19T14:23:05.031Z,33.35
2024-04-19T14:25:35.585Z,33.31
2024-04-19T14:28:03.558Z,33.18
2024-04-19T14:30:31.339Z,33.19
2024-04-19T14:32:59.138Z,33.08
2024-04-19T14:35:27.759Z,32.81
2024-04-19T14:37:56.058Z,32.71
2024-04-19T14:40:23.747Z,32.51
2024-04-19T14:42:51.416Z,32.42
2024-04-19T14:45:19.299Z,32.38
2024-04-19T14:47:47.152Z,32.31
2024-04-19T14:50:15.328Z,32.13
2024-04-19T14:52:53.325Z,32.21
2024-04-19T14:55:28.151Z,32.12
2024-04-19T14:57:56.203Z,32.12
2024-04-19T15:00:25.488Z,31.88
2024-04-19T15:02:53.092Z,31.99
2024-04-19T15:05:21.505Z,32.04
2024-04-19T15:07:51.484Z,31.87
2024-04-19T15:10:19.186Z,31.84
2024-04-19T15:12:46.836Z,31.95
2024-04-19T15:15:14.771Z,31.86
2024-04-19T15:17:43.803Z,31.80
2024-04-19T15:20:15.308Z,31.74
2024-04-19T15:22:43.898Z,31.88
2024-04-19T15:25:11.831Z,31.90
2024-04-19T15:27:39.917Z,31.96
2024-04-19T15:30:09.031Z,31.89
2024-04-19T15:32:38.540Z,31.83
2024-04-19T15:35:10.121Z,31.86
2024-04-19T15:37:38.801Z,31.94
2024-04-19T15:40:07.661Z,31.80
2024-04-19T15:42:35.418Z,31.89
2024-04-19T15:45:03.875Z,31.89
2024-04-19T15:47:31.836Z,31.94
2024-04-19T15:49:59.475Z,31.86
2024-04-19T15:52:27.621Z,32.22
2024-04-19T15:54:56.164Z,32.36
2024-04-19T15:57:24.730Z,32.51
2024-04-19T15:59:53.015Z,32.58
2024-04-19T16:02:21.565Z,32.58
2024-04-19T16:04:53.003Z,32.68
2024-04-19T16:07:34.789Z,32.77
2024-04-19T16:10:04.140Z,32.78
2024-04-19T16:12:32.731Z,33.00
2024-04-19T16:15:01.860Z,33.06
2024-04-19T16:17:30.799Z,33.09
2024-04-19T16:19:59.293Z,33.14
2024-04-19T16:22:27.791Z,33.14
2024-04-19T16:24:56.929Z,33.35
2024-04-19T16:27:25.271Z,33.20
2024-04-19T16:29:54.739Z,33.25
2024-04-19T16:32:23.009Z,33.40
2024-04-19T16:34:51.441Z,33.39
2024-04-19T16:37:22.285Z,33.29
2024-04-19T16:39:51.217Z,33.44
2024-04-19T16:42:19.623Z,33.70
2024-04-19T16:44:51.435Z,35.01
2024-04-19T16:47:21.908Z,35.68
2024-04-19T16:49:50.644Z,36.12
2024-04-19T16:52:18.800Z,36.29
2024-04-19T16:54:47.186Z,36.39
2024-04-19T16:57:15.398Z,36.59
2024-04-19T16:59:43.557Z,36.50
2024-04-19T17:02:11.860Z,36.53
2024-04-19T17:04:40.841Z,36.78
2024-04-19T17:07:09.378Z,36.59
2024-04-19T17:09:37.892Z,36.66
2024-04-19T17:12:08.532Z,36.66
2024-04-19T17:14:36.645Z,36.73
2024-04-19T17:17:04.655Z,36.91
2024-04-19T17:19:32.454Z,36.79
2024-04-19T17:22:00.112Z,36.78
2024-04-19T17:24:27.837Z,36.78
2024-04-19T17:26:55.406Z,36.90
2024-04-19T17:29:23.251Z,36.86
2024-04-19T17:31:52.319Z,36.85
2024-04-19T17:34:20.963Z,36.66
2024-04-19T17:36:50.789Z,36.92
2024-04-19T17:39:18.454Z,36.82
2024-04-19T17:41:46.040Z,36.90
2024-04-19T17:44:14.023Z,36.86
2024-04-19T17:46:41.562Z,36.89
2024-04-19T17:49:09.204Z,36.75
2024-04-19T17:51:36.772Z,36.93
2024-04-19T17:54:04.422Z,36.93
2024-04-19T17:56:32.018Z,36.96
2024-04-19T17:58:59.635Z,37.01
2024-04-19T18:01:30.503Z,36.94
2024-04-19T18:03:58.513Z,36.97
2024-04-19T18:06:26.151Z,36.80
2024-04-19T18:08:54.298Z,36.62
2024-04-19T18:11:21.841Z,36.43
2024-04-19T18:13:49.499Z,36.40
2024-04-19T18:16:17.005Z,36.19
2024-04-19T18:18:44.861Z,35.91
2024-04-19T18:21:13.920Z,35.82
2024-04-19T18:23:41.429Z,35.73
2024-04-19T18:26:09.060Z,35.60
2024-04-19T18:28:37.116Z,35.37
2024-04-19T18:31:05.737Z,35.34
2024-04-19T18:33:33.537Z,35.37
2024-04-19T18:36:01.476Z,35.16
2024-04-19T18:38:28.957Z,34.99
2024-04-19T18:40:56.620Z,35.00
2024-04-19T18:43:24.735Z,35.06
2024-04-19T18:45:52.326Z,34.81
2024-04-19T18:48:19.967Z,34.82
2024-04-19T18:50:47.779Z,34.77
2024-04-19T18:53:15.375Z,34.76
2024-04-19T18:55:42.987Z,34.63
2024-04-19T18:58:10.515Z,34.70
2024-04-19T19:00:40.929Z,34.70
2024-04-19T19:03:08.537Z,34.55
2024-04-19T19:05:36.456Z,34.57
2024-04-19T19:08:04.258Z,34.41
2024-04-19T19:10:35.903Z,34.79
2024-04-19T19:13:04.759Z,35.15
2024-04-19T19:15:32.570Z,35.29
2024-04-19T19:18:01.123Z,35.36
2024-04-19T19:20:28.955Z,35.50
2024-04-19T19:22:57.257Z,35.52
2024-04-19T19:25:24.852Z,35.58
2024-04-19T19:27:52.383Z,35.48
2024-04-19T19:30:20.171Z,35.62
2024-04-19T19:32:47.898Z,35.68
2024-04-19T19:35:15.467Z,35.78
2024-04-19T19:37:43.077Z,35.65
2024-04-19T19:40:11.355Z,35.85
2024-04-19T19:42:38.976Z,35.76
2024-04-19T19:45:06.777Z,35.84
2024-04-19T19:47:34.444Z,35.85
2024-04-19T19:50:04.702Z,35.82
2024-04-19T19:52:32.402Z,35.72
2024-04-19T19:55:02.200Z,35.75
2024-04-19T19:57:30.346Z,35.74
2024-04-19T20:00:16.666Z,35.80
2024-04-19T20:03:05.329Z,35.78
2024-04-19T20:05:49.204Z,35.90
2024-04-19T20:08:18.189Z,35.87
2024-04-19T20:10:46.301Z,35.78
2024-04-19T20:13:15.273Z,35.84
2024-04-19T20:15:47.922Z,35.76
2024-04-19T20:18:18.132Z,35.71
2024-04-19T20:20:54.036Z,36.08
2024-04-19T20:23:22.723Z,36.95
2024-04-19T20:25:50.388Z,37.15
2024-04-19T20:28:18.012Z,36.90
2024-04-19T20:30:45.904Z,37.01
2024-04-19T20:33:13.754Z,37.01
2024-04-19T20:35:41.583Z,37.06
2024-04-19T20:38:09.284Z,36.83
2024-04-19T20:40:37.089Z,36.61
2024-04-19T20:43:15.217Z,36.57
2024-04-19T20:45:48.572Z,36.62
2024-04-19T20:48:19.654Z,36.40
2024-04-19T20:50:51.305Z,36.24
2024-04-19T20:53:19.029Z,36.07
2024-04-19T20:55:46.613Z,36.19
2024-04-19T20:58:14.253Z,36.01
2024-04-19T21:00:42.061Z,35.91
2024-04-19T21:03:09.965Z,35.74
2024-04-19T21:05:37.835Z,35.76
2024-04-19T21:08:06.115Z,35.64
2024-04-19T21:10:33.817Z,35.74
2024-04-19T21:13:01.805Z,35.64
2024-04-19T21:15:32.249Z,35.66
2024-04-19T21:18:00.014Z,35.43
2024-04-19T21:20:39.214Z,35.40
2024-04-19T21:23:06.877Z,35.33
2024-04-19T21:25:39.662Z,35.69
2024-04-19T21:28:07.973Z,35.70
2024-04-19T21:30:35.585Z,35.60
2024-04-19T21:33:03.465Z,35.41
2024-04-19T21:35:31.004Z,35.49
2024-04-19T21:37:58.626Z,35.61
2024-04-19T21:40:26.295Z,35.47
2024-04-19T21:42:53.879Z,35.42
2024-04-19T21:45:23.073Z,35.52
2024-04-19T21:47:51.234Z,35.28
2024-04-19T21:50:18.809Z,35.32
2024-04-19T21:52:46.436Z,35.35
2024-04-19T21:55:14.150Z,35.24
2024-04-19T21:57:42.174Z,35.25
2024-04-19T22:00:12.851Z,35.18
2024-04-19T22:02:40.555Z,35.17
2024-04-19T22:05:08.238Z,35.16
2024-04-19T22:07:36.126Z,35.17
2024-04-19T22:10:04.552Z,35.02
2024-04-19T22:12:32.494Z,35.17
2024-04-19T22:15:00.311Z,35.15
2024-04-19T22:17:28.288Z,35.13
2024-04-19T22:19:57.439Z,35.04
2024-04-19T22:22:25.935Z,35.21
2024-04-19T22:24:53.544Z,35.23
2024-04-19T22:27:21.563Z,35.26
2024-04-19T22:29:53.404Z,35.15
2024-04-19T22:32:20.958Z,35.24
2024-04-19T22:34:48.795Z,35.15
2024-04-19T22:37:16.396Z,35.14
2024-04-19T22:39:45.686Z,35.25
2024-04-19T22:42:13.346Z,35.29
2024-04-19T22:44:40.918Z,35.23
2024-04-19T22:47:08.590Z,35.29
2024-04-19T22:49:36.238Z,35.25
2024-04-19T22:52:04.220Z,35.26
2024-04-19T22:54:32.064Z,35.27
2024-04-19T22:56:59.810Z,35.28
2024-04-19T22:59:27.433Z,35.28
2024-04-19T23:01:55.130Z,35.33
2024-04-19T23:04:22.851Z,35.38
2024-04-19T23:06:50.360Z,35.45
2024-04-19T23:09:17.875Z,35.56
2024-04-19T23:11:45.454Z,35.47
2024-04-19T23:14:12.999Z,35.57
2024-04-19T23:16:40.540Z,35.44
2024-04-19T23:19:08.793Z,35.48
2024-04-19T23:21:36.499Z,35.34
2024-04-19T23:24:08.746Z,35.30
2024-04-19T23:26:36.294Z,35.35
2024-04-19T23:29:05.198Z,35.32
2024-04-19T23:31:33.344Z,35.31
2024-04-19T23:34:01.029Z,35.54
2024-04-19T23:36:28.968Z,35.65
2024-04-19T23:38:56.854Z,35.67
2024-04-19T23:41:25.142Z,35.60
2024-04-19T23:43:53.119Z,35.48
2024-04-19T23:46:20.786Z,35.52
2024-04-19T23:48:48.674Z,35.41
2024-04-19T23:51:16.283Z,35.40
2024-04-19T23:53:43.825Z,35.33
2024-04-19T23:56:11.489Z,35.37
2024-04-19T23:58:39.087Z,35.18
